Startpagina
METAR-TAF:

METAR-TAF

Vliegvelden :

Dibrugarh, India

breedte: 27-29N, lengte: 095-01E, hoogte: 110 m

Actueel weer

Dit bericht is 42 minuten geleden gemaakt, om 08:30 UTC
Wind 8 kt uit het noordoosten
Temperatuur 34°C
Vochtigheid 67%
Druk 1004 hPa
Zicht: 5000 m
Verspreide wolken op 2000 ft
Gebroken wolken op 10000 ft
Heiigheid

METAR: VEMN 190830Z 04008KT 5000 HZ SCT020 BKN100 34/27 Q1004 NOSIG

Tijdstip: 14:42 (09:12 UTC)


TAF: ontbreekt

Waarnemingen en weersverwachtingen van meer dan 4000 vliegvelden (METAR en TAF).

De beschikbare stations zijn de gele en rode punten op de kaart.

Ga met uw muis naar het station om de naam te zien.

Klik dan om waarnemingen en weersverwachtingen te zien.

kaart wijzigen: klik op de groene knoppen met een zwart kruis om in te zoomen, op de groene knop met een streepje om uit te zoomen of op de groene pijlen voor aangrenzende kaarten.


METAR-TAF: